Groton New London Airport Groton (New London) US
ICAO: KGON
IATA: GON
Category: Medium
Scheduled Services: No

Elevation: 9 ft
TransAlt. 18000 ft.

Airport Communications:
PROVIDENCE APP/DEP:125.75
ATIS:127
CLNC DEL:119.85
CTAF:125.6
GND:121.65
ARNG OPS:126.2
BRIDGEPORT RDO:122.1
TWR:125.6

KGON Zoom In..

If Map Doesn't Load, Click Here

Runways:

(A) RW 05 length 5000 ft width 150 ft
ILS 111.30 / hdg 48

(B) RW 15 length 4000 ft width 100 ft
---- / hdg 149

(C) RW 23 length 5000 ft width 150 ft
---- / hdg 228

(D) RW 33 length 4000 ft width 100 ft
---- / hdg 329

Location; KGON
Day. 21 / Time. 13.56 Zulu
* Altimeter: 30.27
* Temperature: 19° c. 66.2°f.
* Wind from: 140° Speed 10 kn.
Dewpoint: 14° c.
Visibility: 10 Statute Miles.
Clouds: Few 2300 ft.
Clouds: Overcast 6000 ft.

KGON 211356Z 14010KT 10SM FEW023 OVC060 19/14 A3027 RMK AO2 SLP250 T01890139


Wind From 140°
Speed 10 kn.

 
 
jpsmedia.com for Web Design worldairports.se 2018   terms of use